createdAt,value
2018-11-20T00:00:37.874Z,7.70
2018-11-20T00:03:25.148Z,7.60
2018-11-20T00:06:25.672Z,7.23
2018-11-20T00:09:12.512Z,7.57
2018-11-20T00:12:06.842Z,7.67
2018-11-20T00:15:04.202Z,7.60
2018-11-20T00:17:52.417Z,7.87
2018-11-20T00:20:55.610Z,7.60
2018-11-20T00:23:42.542Z,8.03
2018-11-20T00:26:42.959Z,8.00
2018-11-20T00:29:43.059Z,7.93
2018-11-20T00:32:29.442Z,8.00
2018-11-20T00:35:17.488Z,7.73
2018-11-20T00:38:02.877Z,8.10
2018-11-20T00:40:51.105Z,7.77
2018-11-20T00:43:38.219Z,8.00
2018-11-20T00:46:25.361Z,8.23
2018-11-20T00:49:16.709Z,8.03
2018-11-20T00:52:03.266Z,8.07
2018-11-20T00:54:54.238Z,7.97
2018-11-20T00:57:48.695Z,7.80
2018-11-20T01:00:30.804Z,8.30
2018-11-20T01:03:37.082Z,8.40
2018-11-20T01:06:23.700Z,7.37
2018-11-20T01:09:05.414Z,7.80
2018-11-20T01:11:52.256Z,8.03
2018-11-20T01:14:34.357Z,8.40
2018-11-20T01:17:37.633Z,8.30
2018-11-20T01:20:34.860Z,8.33
2018-11-20T01:23:11.181Z,8.03
2018-11-20T01:25:58.356Z,7.77
2018-11-20T01:28:48.819Z,8.53
2018-11-20T01:31:55.896Z,8.40
2018-11-20T01:34:52.991Z,8.30
2018-11-20T01:37:38.489Z,8.53
2018-11-20T01:40:30.446Z,8.17
2018-11-20T01:43:14.379Z,8.83
2018-11-20T01:46:08.590Z,8.43
2018-11-20T01:48:44.999Z,8.40
2018-11-20T01:51:39.318Z,8.93
2018-11-20T01:54:36.441Z,8.90
2018-11-20T01:57:23.725Z,8.70
2018-11-20T02:00:11.940Z,9.07
2018-11-20T02:03:08.997Z,9.17
2018-11-20T02:05:54.492Z,9.10
2018-11-20T02:08:41.965Z,8.67
2018-11-20T02:11:28.988Z,9.40
2018-11-20T02:14:23.567Z,8.67
2018-11-20T02:17:22.287Z,9.43
2018-11-20T02:20:09.077Z,8.93
2018-11-20T02:23:12.408Z,9.87
2018-11-20T02:25:56.489Z,9.40
2018-11-20T02:28:43.465Z,9.93
2018-11-20T02:31:30.468Z,9.30
2018-11-20T02:34:31.817Z,9.80
2018-11-20T02:37:22.920Z,9.80
2018-11-20T02:40:08.526Z,10.70
2018-11-20T02:42:59.449Z,10.33
2018-11-20T02:45:53.335Z,9.67
2018-11-20T02:48:40.516Z,10.37
2018-11-20T02:51:31.763Z,10.17
2018-11-20T02:54:31.668Z,10.63
2018-11-20T02:57:26.091Z,10.73
2018-11-20T03:00:22.092Z,11.23
2018-11-20T03:03:13.231Z,10.57
2018-11-20T03:06:11.992Z,10.90
2018-11-20T03:09:03.120Z,10.97
2018-11-20T03:11:57.260Z,11.40
2018-11-20T03:14:45.464Z,11.60
2018-11-20T03:17:39.722Z,12.10
2018-11-20T03:20:28.951Z,11.93
2018-11-20T03:23:32.258Z,12.30
2018-11-20T03:26:30.230Z,12.93
2018-11-20T03:29:51.899Z,11.70
2018-11-20T03:32:38.886Z,13.23
2018-11-20T03:35:24.908Z,13.37
2018-11-20T03:38:13.394Z,12.77
2018-11-20T03:41:10.595Z,13.17
2018-11-20T03:44:10.974Z,13.37
2018-11-20T03:46:49.655Z,13.40
2018-11-20T03:49:49.854Z,14.13
2018-11-20T03:52:43.932Z,14.10
2018-11-20T03:55:25.765Z,13.90
2018-11-20T03:58:07.834Z,14.83
2018-11-20T04:00:56.069Z,14.70
2018-11-20T04:03:50.627Z,14.47
2018-11-20T04:06:37.019Z,14.23
2018-11-20T04:09:39.507Z,15.33
2018-11-20T04:12:30.446Z,15.63
2018-11-20T04:15:28.767Z,15.33
2018-11-20T04:18:16.142Z,15.43
2018-11-20T04:21:04.381Z,15.60
2018-11-20T04:23:52.737Z,16.33
2018-11-20T04:26:44.051Z,17.00
2018-11-20T04:29:24.064Z,15.70
2018-11-20T04:32:12.010Z,16.70
2018-11-20T04:35:01.249Z,16.73
2018-11-20T04:37:39.867Z,16.67
2018-11-20T04:40:26.872Z,16.20
2018-11-20T04:43:15.079Z,16.60
2018-11-20T04:46:02.809Z,16.97
2018-11-20T04:48:47.615Z,16.93
2018-11-20T04:51:50.896Z,17.47
2018-11-20T04:54:37.919Z,17.33
2018-11-20T04:57:26.166Z,17.30
2018-11-20T05:00:20.358Z,17.50
2018-11-20T05:03:14.452Z,18.37
2018-11-20T05:06:02.915Z,18.03
2018-11-20T05:09:06.298Z,18.60
2018-11-20T05:11:53.091Z,17.83
2018-11-20T05:14:33.632Z,18.17
2018-11-20T05:17:17.993Z,18.97
2018-11-20T05:20:17.442Z,19.03
2018-11-20T05:23:04.132Z,18.67
2018-11-20T05:25:52.319Z,19.40
2018-11-20T05:28:43.498Z,18.70
2018-11-20T05:31:26.344Z,19.97
2018-11-20T05:34:04.210Z,19.33
2018-11-20T05:36:55.850Z,19.17
2018-11-20T05:39:42.485Z,19.53
2018-11-20T05:42:33.800Z,20.23
2018-11-20T05:45:23.851Z,20.00
2018-11-20T05:48:08.295Z,19.70
2018-11-20T05:50:45.033Z,20.10
2018-11-20T05:53:48.532Z,20.43
2018-11-20T05:56:35.178Z,19.50
2018-11-20T05:59:26.306Z,19.73
2018-11-20T06:02:21.460Z,21.00
2018-11-20T06:05:15.778Z,20.10
2018-11-20T06:07:59.829Z,20.50
2018-11-20T06:10:46.868Z,19.93
2018-11-20T06:13:33.643Z,20.60
2018-11-20T06:16:24.948Z,20.43
2018-11-20T06:21:59.627Z,20.13
2018-11-20T06:24:56.586Z,19.37
2018-11-20T06:27:37.045Z,19.83
2018-11-20T06:30:21.683Z,20.17
2018-11-20T06:33:08.431Z,20.13
2018-11-20T06:35:56.541Z,20.50
2018-11-20T06:38:54.012Z,19.63
2018-11-20T06:41:40.789Z,20.00
2018-11-20T06:44:28.099Z,19.97
2018-11-20T06:47:14.867Z,20.23
2018-11-20T06:50:06.022Z,20.53
2018-11-20T06:52:52.897Z,19.50
2018-11-20T06:55:40.074Z,21.20
2018-11-20T06:58:26.933Z,22.67
2018-11-20T07:01:27.467Z,20.73
2018-11-20T07:04:15.540Z,19.13
2018-11-20T07:07:03.849Z,20.07
2018-11-20T07:09:57.698Z,19.50
2018-11-20T07:12:45.091Z,22.30
2018-11-20T07:15:34.570Z,19.90
2018-11-20T07:18:28.642Z,19.33
2018-11-20T07:21:14.516Z,18.93
2018-11-20T07:24:02.418Z,18.67
2018-11-20T07:27:05.719Z,19.17
2018-11-20T07:29:52.606Z,21.17
2018-11-20T07:32:41.114Z,19.10
2018-11-20T07:35:29.012Z,20.57
2018-11-20T07:38:19.503Z,19.27
2018-11-20T07:41:06.223Z,25.87
2018-11-20T07:43:44.749Z,20.83
2018-11-20T07:46:35.696Z,22.20
2018-11-20T07:49:33.113Z,18.07
2018-11-20T07:52:26.963Z,18.27
2018-11-20T07:55:17.830Z,19.27
2018-11-20T07:58:18.073Z,18.83
2018-11-20T08:01:13.720Z,18.07
2018-11-20T08:04:03.414Z,21.23
2018-11-20T08:06:50.498Z,18.73
2018-11-20T08:09:37.781Z,17.97
2018-11-20T08:12:25.954Z,19.47
2018-11-20T08:15:02.784Z,18.63
2018-11-20T08:17:45.784Z,18.57
2018-11-20T08:20:39.651Z,19.00
2018-11-20T08:23:36.545Z,18.77
2018-11-20T08:26:39.797Z,19.07
2018-11-20T08:29:26.502Z,18.63
2018-11-20T08:32:14.745Z,18.53
2018-11-20T08:35:01.524Z,18.20
2018-11-20T08:37:48.361Z,17.47
2018-11-20T08:40:48.804Z,18.27
2018-11-20T08:43:44.069Z,18.17
2018-11-20T08:46:30.714Z,17.13
2018-11-20T08:49:24.828Z,18.27
2018-11-20T08:52:21.850Z,17.80
2018-11-20T08:55:10.049Z,18.40
2018-11-20T08:58:04.362Z,18.07
2018-11-20T09:01:04.239Z,20.67
2018-11-20T09:04:02.378Z,18.23
2018-11-20T09:06:53.490Z,18.67
2018-11-20T09:09:39.101Z,18.47
2018-11-20T09:12:25.899Z,18.73
2018-11-20T09:15:13.246Z,18.40
2018-11-20T09:18:00.059Z,18.03
2018-11-20T09:20:46.950Z,18.57
2018-11-20T09:23:34.152Z,18.53
2018-11-20T09:26:15.565Z,18.43
2018-11-20T09:29:06.572Z,18.07
2018-11-20T09:32:05.845Z,18.23
2018-11-20T09:34:57.062Z,18.60
2018-11-20T09:37:50.935Z,17.73
2018-11-20T09:41:15.110Z,19.40
2018-11-20T09:44:18.055Z,34.70
2018-11-20T09:47:06.824Z,19.80
2018-11-20T09:49:53.819Z,18.27
2018-11-20T09:52:40.879Z,18.63
2018-11-20T09:55:39.293Z,17.60
2018-11-20T09:58:45.687Z,18.47
2018-11-20T10:01:22.862Z,17.93
2018-11-20T10:04:11.042Z,18.10
2018-11-20T10:07:08.433Z,17.53
2018-11-20T10:09:43.575Z,17.80
2018-11-20T10:12:43.948Z,18.23
2018-11-20T10:15:32.194Z,18.63
2018-11-20T10:18:35.652Z,17.70
2018-11-20T10:21:34.434Z,18.23
2018-11-20T10:24:23.355Z,17.50
2018-11-20T10:27:20.500Z,18.00
2018-11-20T10:33:09.094Z,18.77
2018-11-20T10:35:52.905Z,17.67
2018-11-20T10:38:41.416Z,20.10
2018-11-20T10:41:28.288Z,17.67
2018-11-20T10:44:15.455Z,18.47
2018-11-20T10:46:54.633Z,18.20
2018-11-20T10:49:41.360Z,18.73
2018-11-20T10:52:18.226Z,17.63
2018-11-20T10:55:06.448Z,18.37
2018-11-20T10:57:53.529Z,17.60
2018-11-20T11:00:40.401Z,18.33
2018-11-20T11:03:25.551Z,17.57
2018-11-20T11:06:12.186Z,17.90
2018-11-20T11:08:59.332Z,18.80
2018-11-20T11:11:59.774Z,18.20
2018-11-20T11:14:44.118Z,18.53
2018-11-20T11:17:34.955Z,18.13
2018-11-20T11:20:23.289Z,18.43
2018-11-20T11:23:17.080Z,18.13
2018-11-20T11:26:17.274Z,18.13
2018-11-20T11:29:07.708Z,17.57
2018-11-20T11:31:54.798Z,18.47
2018-11-20T11:34:44.596Z,18.10
2018-11-20T11:37:35.505Z,17.63
2018-11-20T11:40:23.797Z,18.93
2018-11-20T11:43:09.877Z,18.43
2018-11-20T11:46:13.084Z,18.60
2018-11-20T11:48:59.814Z,19.13
2018-11-20T11:51:50.776Z,18.73
2018-11-20T11:54:41.673Z,18.47
2018-11-20T11:57:28.484Z,18.10
2018-11-20T12:00:16.711Z,18.07
2018-11-20T12:05:49.880Z,18.80
2018-11-20T12:08:36.999Z,18.00
2018-11-20T12:11:25.325Z,17.80
2018-11-20T12:14:16.507Z,19.20
2018-11-20T12:17:03.575Z,19.57
2018-11-20T12:19:55.978Z,19.13
2018-11-20T12:22:47.372Z,19.70
2018-11-20T12:25:26.994Z,19.87
2018-11-20T12:28:34.744Z,19.90
2018-11-20T12:31:11.810Z,19.93
2018-11-20T12:33:59.972Z,20.40
2018-11-20T12:36:41.778Z,18.57
2018-11-20T12:39:28.501Z,20.17
2018-11-20T12:42:15.359Z,18.83
2018-11-20T12:44:56.702Z,18.70
2018-11-20T12:47:50.389Z,19.93
2018-11-20T12:50:50.616Z,19.10
2018-11-20T12:53:43.217Z,19.50
2018-11-20T12:56:34.160Z,19.00
2018-11-20T12:59:25.301Z,19.43
2018-11-20T13:02:22.534Z,19.07
2018-11-20T13:05:09.526Z,19.23
2018-11-20T13:08:03.773Z,18.87
2018-11-20T13:10:50.831Z,18.90
2018-11-20T13:13:37.581Z,19.83
2018-11-20T13:16:34.951Z,19.17
2018-11-20T13:19:27.406Z,19.43
2018-11-20T13:22:12.386Z,18.47
2018-11-20T13:24:49.094Z,26.53
2018-11-20T13:27:35.600Z,18.30
2018-11-20T13:30:23.033Z,19.23
2018-11-20T13:33:17.847Z,19.13
2018-11-20T13:36:03.436Z,22.13
2018-11-20T13:38:52.025Z,18.07
2018-11-20T13:41:51.889Z,19.00
2018-11-20T13:44:39.692Z,21.40
2018-11-20T13:47:27.723Z,19.50
2018-11-20T13:50:15.956Z,21.60
2018-11-20T13:53:04.294Z,18.83
2018-11-20T13:56:01.337Z,20.80
2018-11-20T13:58:48.850Z,18.93
2018-11-20T14:01:52.338Z,19.90
2018-11-20T14:04:39.274Z,19.27
2018-11-20T14:07:26.209Z,18.27
2018-11-20T14:10:13.326Z,22.70
2018-11-20T14:13:01.653Z,18.67
2018-11-20T14:15:48.503Z,21.93
2018-11-20T14:18:32.419Z,21.30
2018-11-20T14:21:19.465Z,20.40
2018-11-20T14:24:06.469Z,19.63
2018-11-20T14:26:54.775Z,24.90
2018-11-20T14:29:36.406Z,20.87
2018-11-20T14:32:27.825Z,20.00
2018-11-20T14:35:16.003Z,18.77
2018-11-20T14:38:10.380Z,21.10
2018-11-20T14:41:07.448Z,19.63
2018-11-20T14:43:54.220Z,19.77
2018-11-20T14:46:51.779Z,19.70
2018-11-20T14:49:41.094Z,19.90
2018-11-20T14:52:26.917Z,19.90
2018-11-20T14:55:15.294Z,20.07
2018-11-20T14:57:59.637Z,18.67
2018-11-20T15:00:51.031Z,22.60
2018-11-20T15:03:42.156Z,19.70
2018-11-20T15:06:24.900Z,18.97
2018-11-20T15:09:15.755Z,19.47
2018-11-20T15:11:56.303Z,18.97
2018-11-20T15:14:42.994Z,19.40
2018-11-20T15:17:42.338Z,19.20
2018-11-20T15:20:33.143Z,19.47
2018-11-20T15:23:23.890Z,18.87
2018-11-20T15:26:12.125Z,18.73
2018-11-20T15:29:00.367Z,18.83
2018-11-20T15:31:47.171Z,19.43
2018-11-20T15:34:34.208Z,19.20
2018-11-20T15:37:22.491Z,18.77
2018-11-20T15:40:16.776Z,19.37
2018-11-20T15:43:02.703Z,20.57
2018-11-20T15:46:03.115Z,19.47
2018-11-20T15:48:43.404Z,18.80
2018-11-20T15:51:30.124Z,20.10
2018-11-20T15:54:18.329Z,18.67
2018-11-20T15:57:08.565Z,19.90
2018-11-20T16:00:03.071Z,23.97
2018-11-20T16:02:59.759Z,18.60
2018-11-20T16:05:46.426Z,19.00
2018-11-20T16:08:30.565Z,32.90
2018-11-20T16:11:17.455Z,18.83
2018-11-20T16:14:18.000Z,18.60
2018-11-20T16:17:18.259Z,20.40
2018-11-20T16:20:12.131Z,19.33
2018-11-20T16:22:58.699Z,20.23
2018-11-20T16:25:55.863Z,19.17
2018-11-20T16:28:42.935Z,21.13
2018-11-20T16:31:28.016Z,20.93
2018-11-20T16:34:14.977Z,19.37
2018-11-20T16:37:06.132Z,18.83
2018-11-20T16:39:52.814Z,19.63
2018-11-20T16:42:53.751Z,21.40
2018-11-20T16:45:47.870Z,21.53
2018-11-20T16:48:45.190Z,19.90
2018-11-20T16:51:32.140Z,20.97
2018-11-20T16:54:35.653Z,19.10
2018-11-20T16:57:25.690Z,19.13
2018-11-20T17:00:34.374Z,19.57
2018-11-20T17:03:26.931Z,21.03
2018-11-20T17:06:24.073Z,20.83
2018-11-20T17:09:14.976Z,20.63
2018-11-20T17:12:12.385Z,24.30
2018-11-20T17:15:06.306Z,20.17
2018-11-20T17:17:53.420Z,20.03
2018-11-20T17:20:50.633Z,20.13
2018-11-20T17:23:56.902Z,20.00
2018-11-20T17:26:43.835Z,19.73
2018-11-20T17:29:30.912Z,20.57
2018-11-20T17:32:18.011Z,19.30
2018-11-20T17:35:05.047Z,19.87
2018-11-20T17:37:52.063Z,19.87
2018-11-20T17:40:52.578Z,20.10
2018-11-20T17:43:43.563Z,20.53
2018-11-20T17:46:40.410Z,20.87
2018-11-20T17:49:37.713Z,20.40
2018-11-20T17:52:24.749Z,20.03
2018-11-20T17:55:11.966Z,19.77
2018-11-20T17:57:58.687Z,19.43
2018-11-20T18:00:45.630Z,20.27
2018-11-20T18:03:39.990Z,21.27
2018-11-20T18:06:31.970Z,20.70
2018-11-20T18:09:33.633Z,19.33
2018-11-20T18:12:25.515Z,20.37
2018-11-20T18:15:05.835Z,21.00
2018-11-20T18:17:52.815Z,21.17
2018-11-20T18:20:39.512Z,20.93
2018-11-20T18:23:25.773Z,20.77
2018-11-20T18:26:17.185Z,20.30
2018-11-20T18:29:05.462Z,20.37
2018-11-20T18:31:55.758Z,20.33
2018-11-20T18:34:44.251Z,21.23
2018-11-20T18:37:27.878Z,20.93
2018-11-20T18:40:14.970Z,21.37
2018-11-20T18:43:01.641Z,21.33
2018-11-20T18:45:48.455Z,20.67
2018-11-20T18:48:55.167Z,22.20
2018-11-20T18:51:52.572Z,21.13
2018-11-20T18:54:39.472Z,21.73
2018-11-20T18:57:39.938Z,21.20
2018-11-20T19:00:37.875Z,25.70
2018-11-20T19:03:24.613Z,21.50
2018-11-20T19:06:18.813Z,20.93
2018-11-20T19:09:07.059Z,21.53
2018-11-20T19:11:51.878Z,22.00
2018-11-20T19:14:49.323Z,22.37
2018-11-20T19:17:41.364Z,26.70
2018-11-20T19:20:39.318Z,21.80
2018-11-20T19:23:42.809Z,21.73
2018-11-20T19:26:36.122Z,21.47
2018-11-20T19:29:36.338Z,23.40
2018-11-20T19:32:27.296Z,24.10
2018-11-20T19:35:14.672Z,30.23
2018-11-20T19:37:56.920Z,24.13
2018-11-20T19:40:54.900Z,23.30
2018-11-20T19:43:46.143Z,22.87
2018-11-20T19:46:32.917Z,22.47
2018-11-20T19:49:13.347Z,22.47
2018-11-20T19:52:01.067Z,22.87
2018-11-20T19:54:54.543Z,23.20
2018-11-20T19:57:55.054Z,23.30
2018-11-20T20:00:49.255Z,22.80
2018-11-20T20:03:36.196Z,23.70
2018-11-20T20:06:28.969Z,23.77
2018-11-20T20:09:15.884Z,22.27
2018-11-20T20:12:02.438Z,24.33
2018-11-20T20:14:49.136Z,22.80
2018-11-20T20:17:56.094Z,22.87
2018-11-20T20:20:53.157Z,22.97
2018-11-20T20:23:37.677Z,23.60
2018-11-20T20:26:21.515Z,22.53
2018-11-20T20:29:15.716Z,22.53
2018-11-20T20:32:02.369Z,22.00
2018-11-20T20:34:50.417Z,23.00
2018-11-20T20:37:44.637Z,22.00
2018-11-20T20:40:32.843Z,23.23
2018-11-20T20:43:21.014Z,22.80
2018-11-20T20:46:03.753Z,22.57
2018-11-20T20:48:57.814Z,22.13
2018-11-20T20:51:46.271Z,23.97
2018-11-20T20:54:33.415Z,23.30
2018-11-20T20:57:36.909Z,23.90
2018-11-20T21:00:31.014Z,22.87
2018-11-20T21:03:37.611Z,23.30
2018-11-20T21:06:41.228Z,22.60
2018-11-20T21:09:35.744Z,22.80
2018-11-20T21:12:19.234Z,22.83
2018-11-20T21:14:59.793Z,22.63
2018-11-20T21:18:06.165Z,23.83
2018-11-20T21:21:03.346Z,22.67
2018-11-20T21:24:03.145Z,22.47
2018-11-20T21:26:47.753Z,22.23
2018-11-20T21:29:34.913Z,22.23
2018-11-20T21:32:21.945Z,22.10
2018-11-20T21:35:08.959Z,22.93
2018-11-20T21:38:12.478Z,22.97
2018-11-20T21:41:06.619Z,21.73
2018-11-20T21:44:03.738Z,22.57
2018-11-20T21:46:50.810Z,22.47
2018-11-20T21:49:39.000Z,22.00
2018-11-20T21:52:22.538Z,21.73
2018-11-20T21:55:09.309Z,21.40
2018-11-20T21:57:57.159Z,22.33
2018-11-20T22:01:00.643Z,22.33
2018-11-20T22:03:47.459Z,21.57
2018-11-20T22:06:41.410Z,21.33
2018-11-20T22:09:21.673Z,21.03
2018-11-20T22:12:09.936Z,21.77
2018-11-20T22:15:04.237Z,21.97
2018-11-20T22:18:01.492Z,21.70
2018-11-20T22:20:54.660Z,21.53
2018-11-20T22:23:41.723Z,22.20
2018-11-20T22:26:28.380Z,22.93
2018-11-20T22:29:15.255Z,23.30
2018-11-20T22:32:02.399Z,22.97
2018-11-20T22:35:05.743Z,21.80
2018-11-20T22:37:56.562Z,21.97
2018-11-20T22:40:44.776Z,22.27
2018-11-20T22:43:31.804Z,21.90
2018-11-20T22:46:30.892Z,22.30
2018-11-20T22:49:24.866Z,21.83
2018-11-20T22:52:16.874Z,22.87
2018-11-20T22:55:05.038Z,22.53
2018-11-20T22:57:51.826Z,22.63
2018-11-20T23:00:38.017Z,21.60
2018-11-20T23:03:32.095Z,22.90
2018-11-20T23:06:24.967Z,23.30
2018-11-20T23:08:54.025Z,22.97
2018-11-20T23:11:23.040Z,23.37
2018-11-20T23:13:52.115Z,21.77
2018-11-20T23:16:21.171Z,23.13
2018-11-20T23:18:50.213Z,23.13
2018-11-20T23:21:19.566Z,23.23
2018-11-20T23:23:49.460Z,22.00
2018-11-20T23:26:18.474Z,22.70
2018-11-20T23:28:47.464Z,22.03
2018-11-20T23:31:16.528Z,22.97
2018-11-20T23:33:45.759Z,22.80
2018-11-20T23:36:14.801Z,22.30
2018-11-20T23:38:44.012Z,22.50
2018-11-20T23:41:13.176Z,21.70
2018-11-20T23:43:42.202Z,22.57
2018-11-20T23:46:11.229Z,22.87
2018-11-20T23:48:40.254Z,22.60
2018-11-20T23:51:09.397Z,22.43
2018-11-20T23:53:38.428Z,23.70
2018-11-20T23:56:07.670Z,21.53
2018-11-20T23:58:36.822Z,22.73
